sensor_id;sensor_type;location;lat;lon;timestamp;pressure;altitude;pressure_sealevel;temperature;humidity
43480;BME280;29067;35.492;-97.520;2023-04-20T00:01:00;96043.73;;;16.31;100.00
43480;BME280;29067;35.492;-97.520;2023-04-20T00:03:28;96065.31;;;16.86;100.00
43480;BME280;29067;35.492;-97.520;2023-04-20T00:05:56;96092.87;;;17.04;100.00
43480;BME280;29067;35.492;-97.520;2023-04-20T00:08:23;96097.44;;;16.97;95.55
43480;BME280;29067;35.492;-97.520;2023-04-20T00:10:51;96126.51;;;17.39;81.46
43480;BME280;29067;35.492;-97.520;2023-04-20T00:13:19;96121.55;;;17.25;72.41
43480;BME280;29067;35.492;-97.520;2023-04-20T00:15:47;96082.96;;;17.61;67.07
43480;BME280;29067;35.492;-97.520;2023-04-20T00:18:15;96123.51;;;18.17;66.43
43480;BME280;29067;35.492;-97.520;2023-04-20T00:20:43;96091.03;;;17.71;80.28
43480;BME280;29067;35.492;-97.520;2023-04-20T00:23:12;96099.84;;;18.01;83.76
43480;BME280;29067;35.492;-97.520;2023-04-20T00:25:40;96094.23;;;17.93;88.28
43480;BME280;29067;35.492;-97.520;2023-04-20T00:28:08;96080.88;;;18.82;85.64
43480;BME280;29067;35.492;-97.520;2023-04-20T00:30:35;96055.11;;;18.27;87.15
43480;BME280;29067;35.492;-97.520;2023-04-20T00:33:04;96060.57;;;18.19;85.82
43480;BME280;29067;35.492;-97.520;2023-04-20T00:35:32;96048.43;;;18.75;84.70
43480;BME280;29067;35.492;-97.520;2023-04-20T00:38:00;96038.83;;;18.28;86.94
43480;BME280;29067;35.492;-97.520;2023-04-20T00:40:28;96058.38;;;19.31;83.41
43480;BME280;29067;35.492;-97.520;2023-04-20T00:42:56;96091.93;;;19.39;83.38
43480;BME280;29067;35.492;-97.520;2023-04-20T00:45:24;96123.74;;;19.07;84.81
43480;BME280;29067;35.492;-97.520;2023-04-20T00:47:52;96147.12;;;18.28;84.71
43480;BME280;29067;35.492;-97.520;2023-04-20T00:50:20;96125.56;;;19.23;82.52
43480;BME280;29067;35.492;-97.520;2023-04-20T00:52:48;96109.19;;;18.05;91.16
43480;BME280;29067;35.492;-97.520;2023-04-20T00:55:17;96104.99;;;18.71;90.38
43480;BME280;29067;35.492;-97.520;2023-04-20T00:57:46;96116.05;;;18.50;92.33
43480;BME280;29067;35.492;-97.520;2023-04-20T01:00:15;96084.47;;;18.23;96.34
43480;BME280;29067;35.492;-97.520;2023-04-20T01:02:43;96078.67;;;17.70;100.00
43480;BME280;29067;35.492;-97.520;2023-04-20T01:05:10;96037.12;;;16.47;100.00
43480;BME280;29067;35.492;-97.520;2023-04-20T01:07:38;96053.31;;;16.45;100.00
43480;BME280;29067;35.492;-97.520;2023-04-20T01:10:08;96069.11;;;16.82;100.00
43480;BME280;29067;35.492;-97.520;2023-04-20T01:12:36;96040.69;;;16.95;100.00
43480;BME280;29067;35.492;-97.520;2023-04-20T01:15:06;96043.46;;;16.62;100.00
43480;BME280;29067;35.492;-97.520;2023-04-20T01:17:36;96094.03;;;16.95;100.00
43480;BME280;29067;35.492;-97.520;2023-04-20T01:20:06;96120.18;;;16.77;100.00
43480;BME280;29067;35.492;-97.520;2023-04-20T01:22:40;96114.38;;;17.49;100.00
43480;BME280;29067;35.492;-97.520;2023-04-20T01:25:08;96112.30;;;16.55;100.00
43480;BME280;29067;35.492;-97.520;2023-04-20T01:27:37;96068.66;;;16.44;100.00
43480;BME280;29067;35.492;-97.520;2023-04-20T01:30:05;96102.50;;;15.62;100.00
43480;BME280;29067;35.492;-97.520;2023-04-20T01:32:34;96086.90;;;15.46;100.00
43480;BME280;29067;35.492;-97.520;2023-04-20T01:35:03;96105.69;;;16.38;100.00
43480;BME280;29067;35.492;-97.520;2023-04-20T01:37:31;96121.63;;;16.09;100.00
43480;BME280;29067;35.492;-97.520;2023-04-20T01:39:58;96092.27;;;15.69;100.00
43480;BME280;29067;35.492;-97.520;2023-04-20T01:42:26;96102.49;;;15.08;100.00
43480;BME280;29067;35.492;-97.520;2023-04-20T01:44:54;96217.38;;;14.83;100.00
43480;BME280;29067;35.492;-97.520;2023-04-20T01:47:22;96239.97;;;14.09;100.00
43480;BME280;29067;35.492;-97.520;2023-04-20T01:49:50;96230.81;;;13.65;100.00
43480;BME280;29067;35.492;-97.520;2023-04-20T01:52:19;96210.66;;;11.72;100.00
43480;BME280;29067;35.492;-97.520;2023-04-20T01:54:46;96187.43;;;12.23;100.00
43480;BME280;29067;35.492;-97.520;2023-04-20T01:57:15;96133.17;;;13.31;100.00
43480;BME280;29067;35.492;-97.520;2023-04-20T01:59:44;96097.85;;;13.10;100.00
43480;BME280;29067;35.492;-97.520;2023-04-20T02:02:11;96128.51;;;12.86;100.00
43480;BME280;29067;35.492;-97.520;2023-04-20T02:04:39;96133.64;;;13.26;100.00
43480;BME280;29067;35.492;-97.520;2023-04-20T02:07:07;96104.15;;;13.68;100.00
43480;BME280;29067;35.492;-97.520;2023-04-20T02:09:35;96190.55;;;13.66;100.00
43480;BME280;29067;35.492;-97.520;2023-04-20T02:12:03;96181.66;;;13.58;100.00
43480;BME280;29067;35.492;-97.520;2023-04-20T02:14:31;96189.22;;;14.19;100.00
43480;BME280;29067;35.492;-97.520;2023-04-20T02:17:00;96206.52;;;14.26;100.00
43480;BME280;29067;35.492;-97.520;2023-04-20T02:19:29;96189.81;;;13.96;100.00
43480;BME280;29067;35.492;-97.520;2023-04-20T02:21:57;96249.82;;;14.80;100.00
43480;BME280;29067;35.492;-97.520;2023-04-20T02:24:25;96234.86;;;14.94;100.00
43480;BME280;29067;35.492;-97.520;2023-04-20T02:26:53;96256.02;;;15.07;100.00
43480;BME280;29067;35.492;-97.520;2023-04-20T02:29:20;96273.27;;;14.50;100.00
43480;BME280;29067;35.492;-97.520;2023-04-20T02:31:49;96260.17;;;14.45;100.00
43480;BME280;29067;35.492;-97.520;2023-04-20T02:34:17;96241.19;;;15.02;100.00
43480;BME280;29067;35.492;-97.520;2023-04-20T02:36:45;96253.51;;;15.38;100.00
43480;BME280;29067;35.492;-97.520;2023-04-20T02:39:14;96270.84;;;16.58;100.00
43480;BME280;29067;35.492;-97.520;2023-04-20T02:41:43;96262.87;;;16.64;100.00
43480;BME280;29067;35.492;-97.520;2023-04-20T02:44:11;96275.21;;;16.52;100.00
43480;BME280;29067;35.492;-97.520;2023-04-20T02:46:39;96275.32;;;16.94;99.69
43480;BME280;29067;35.492;-97.520;2023-04-20T02:49:06;96267.29;;;16.43;99.13
43480;BME280;29067;35.492;-97.520;2023-04-20T02:51:34;96264.47;;;17.21;100.00
43480;BME280;29067;35.492;-97.520;2023-04-20T02:54:02;96266.87;;;16.25;100.00
43480;BME280;29067;35.492;-97.520;2023-04-20T02:56:29;96271.00;;;15.74;100.00
43480;BME280;29067;35.492;-97.520;2023-04-20T02:58:57;96252.67;;;16.84;96.31
43480;BME280;29067;35.492;-97.520;2023-04-20T03:01:25;96248.27;;;17.16;96.31
43480;BME280;29067;35.492;-97.520;2023-04-20T03:03:53;96247.98;;;16.81;93.26
43480;BME280;29067;35.492;-97.520;2023-04-20T03:06:21;96248.73;;;16.11;94.24
43480;BME280;29067;35.492;-97.520;2023-04-20T03:08:49;96246.22;;;15.81;94.54
43480;BME280;29067;35.492;-97.520;2023-04-20T03:11:17;96245.91;;;17.21;87.21
43480;BME280;29067;35.492;-97.520;2023-04-20T03:13:44;96248.41;;;16.22;85.60
43480;BME280;29067;35.492;-97.520;2023-04-20T03:16:12;96247.46;;;16.52;89.67
43480;BME280;29067;35.492;-97.520;2023-04-20T03:18:40;96250.87;;;16.28;90.48
43480;BME280;29067;35.492;-97.520;2023-04-20T03:21:08;96258.70;;;17.19;86.52
43480;BME280;29067;35.492;-97.520;2023-04-20T03:23:37;96259.39;;;17.01;86.06
43480;BME280;29067;35.492;-97.520;2023-04-20T03:26:04;96264.63;;;17.41;84.64
43480;BME280;29067;35.492;-97.520;2023-04-20T03:28:32;96269.14;;;16.84;86.28
43480;BME280;29067;35.492;-97.520;2023-04-20T03:30:59;96276.07;;;17.53;85.63
43480;BME280;29067;35.492;-97.520;2023-04-20T03:33:28;96278.79;;;17.52;85.49
43480;BME280;29067;35.492;-97.520;2023-04-20T03:35:55;96279.27;;;17.61;84.86
43480;BME280;29067;35.492;-97.520;2023-04-20T03:38:23;96276.35;;;18.24;83.10
43480;BME280;29067;35.492;-97.520;2023-04-20T03:40:50;96271.26;;;17.81;84.49
43480;BME280;29067;35.492;-97.520;2023-04-20T03:43:18;96278.31;;;18.03;84.62
43480;BME280;29067;35.492;-97.520;2023-04-20T03:45:46;96285.45;;;17.16;90.12
43480;BME280;29067;35.492;-97.520;2023-04-20T03:48:14;96276.47;;;16.40;92.05
43480;BME280;29067;35.492;-97.520;2023-04-20T03:50:43;96279.35;;;16.51;95.64
43480;BME280;29067;35.492;-97.520;2023-04-20T03:53:11;96282.10;;;17.58;95.68
43480;BME280;29067;35.492;-97.520;2023-04-20T03:55:39;96274.76;;;17.03;93.32
43480;BME280;29067;35.492;-97.520;2023-04-20T03:58:07;96276.27;;;16.54;95.63
43480;BME280;29067;35.492;-97.520;2023-04-20T04:00:35;96271.76;;;17.37;93.74
43480;BME280;29067;35.492;-97.520;2023-04-20T04:03:04;96279.58;;;17.24;93.57
43480;BME280;29067;35.492;-97.520;2023-04-20T04:05:31;96270.44;;;17.39;93.16
43480;BME280;29067;35.492;-97.520;2023-04-20T04:07:59;96279.38;;;16.37;98.97
43480;BME280;29067;35.492;-97.520;2023-04-20T04:10:27;96275.51;;;17.20;95.72
43480;BME280;29067;35.492;-97.520;2023-04-20T04:12:55;96269.21;;;18.18;93.03
43480;BME280;29067;35.492;-97.520;2023-04-20T04:15:23;96270.45;;;16.91;95.63
43480;BME280;29067;35.492;-97.520;2023-04-20T04:17:53;96261.77;;;17.33;92.85
43480;BME280;29067;35.492;-97.520;2023-04-20T04:20:20;96264.51;;;18.28;88.40
43480;BME280;29067;35.492;-97.520;2023-04-20T04:22:49;96268.74;;;17.74;91.33
43480;BME280;29067;35.492;-97.520;2023-04-20T04:25:17;96266.05;;;17.09;94.57
43480;BME280;29067;35.492;-97.520;2023-04-20T04:27:45;96264.46;;;16.83;95.52
43480;BME280;29067;35.492;-97.520;2023-04-20T04:30:13;96256.23;;;17.93;91.55
43480;BME280;29067;35.492;-97.520;2023-04-20T04:32:41;96244.13;;;17.93;90.33
43480;BME280;29067;35.492;-97.520;2023-04-20T04:35:10;96256.87;;;17.58;90.57
43480;BME280;29067;35.492;-97.520;2023-04-20T04:37:38;96267.59;;;17.07;93.14
43480;BME280;29067;35.492;-97.520;2023-04-20T04:40:08;96270.49;;;17.46;92.35
43480;BME280;29067;35.492;-97.520;2023-04-20T04:42:36;96252.63;;;17.93;89.59
43480;BME280;29067;35.492;-97.520;2023-04-20T04:45:05;96272.22;;;17.51;89.92
43480;BME280;29067;35.492;-97.520;2023-04-20T04:47:35;96260.31;;;17.19;90.59
43480;BME280;29067;35.492;-97.520;2023-04-20T04:50:03;96249.53;;;18.25;87.25
43480;BME280;29067;35.492;-97.520;2023-04-20T04:52:32;96245.45;;;17.42;87.36
43480;BME280;29067;35.492;-97.520;2023-04-20T04:55:00;96261.21;;;18.05;91.25
43480;BME280;29067;35.492;-97.520;2023-04-20T04:57:28;96247.76;;;17.34;89.68
43480;BME280;29067;35.492;-97.520;2023-04-20T04:59:56;96255.67;;;16.50;94.34
43480;BME280;29067;35.492;-97.520;2023-04-20T05:02:24;96256.35;;;17.54;92.55
43480;BME280;29067;35.492;-97.520;2023-04-20T05:04:52;96258.61;;;17.68;89.83
43480;BME280;29067;35.492;-97.520;2023-04-20T05:07:25;96243.75;;;17.75;89.00
43480;BME280;29067;35.492;-97.520;2023-04-20T05:09:53;96250.87;;;17.42;89.01
43480;BME280;29067;35.492;-97.520;2023-04-20T05:12:20;96258.03;;;17.94;87.02
43480;BME280;29067;35.492;-97.520;2023-04-20T05:14:48;96253.89;;;17.26;92.09
43480;BME280;29067;35.492;-97.520;2023-04-20T05:17:15;96257.10;;;17.48;91.29
43480;BME280;29067;35.492;-97.520;2023-04-20T05:19:43;96263.15;;;17.95;88.50
43480;BME280;29067;35.492;-97.520;2023-04-20T05:22:11;96254.30;;;17.22;92.29
43480;BME280;29067;35.492;-97.520;2023-04-20T05:24:38;96253.87;;;17.57;90.41
43480;BME280;29067;35.492;-97.520;2023-04-20T05:27:07;96263.89;;;18.41;87.67
43480;BME280;29067;35.492;-97.520;2023-04-20T05:29:35;96262.36;;;17.96;85.07
43480;BME280;29067;35.492;-97.520;2023-04-20T05:32:03;96266.85;;;18.14;84.15
43480;BME280;29067;35.492;-97.520;2023-04-20T05:34:31;96262.23;;;18.26;82.84
43480;BME280;29067;35.492;-97.520;2023-04-20T05:36:59;96273.24;;;18.59;81.36
43480;BME280;29067;35.492;-97.520;2023-04-20T05:39:27;96269.21;;;16.58;88.54
43480;BME280;29067;35.492;-97.520;2023-04-20T05:41:55;96282.33;;;17.71;84.38
43480;BME280;29067;35.492;-97.520;2023-04-20T05:44:23;96260.61;;;16.98;86.44
43480;BME280;29067;35.492;-97.520;2023-04-20T05:46:50;96280.94;;;17.28;85.77
43480;BME280;29067;35.492;-97.520;2023-04-20T05:49:18;96277.91;;;17.34;84.33
43480;BME280;29067;35.492;-97.520;2023-04-20T05:51:46;96289.45;;;17.43;85.07
43480;BME280;29067;35.492;-97.520;2023-04-20T05:54:14;96280.72;;;18.01;81.69
43480;BME280;29067;35.492;-97.520;2023-04-20T05:56:41;96285.33;;;17.12;83.98
43480;BME280;29067;35.492;-97.520;2023-04-20T05:59:09;96267.68;;;17.25;85.00
43480;BME280;29067;35.492;-97.520;2023-04-20T06:01:37;96280.02;;;18.13;81.20
43480;BME280;29067;35.492;-97.520;2023-04-20T06:04:06;96272.82;;;17.82;81.33
43480;BME280;29067;35.492;-97.520;2023-04-20T06:06:33;96282.98;;;17.24;84.34
43480;BME280;29067;35.492;-97.520;2023-04-20T06:09:02;96269.87;;;17.88;81.73
43480;BME280;29067;35.492;-97.520;2023-04-20T06:11:29;96262.45;;;16.92;85.34
43480;BME280;29067;35.492;-97.520;2023-04-20T06:13:58;96270.08;;;17.31;83.33
43480;BME280;29067;35.492;-97.520;2023-04-20T06:16:26;96260.08;;;17.25;84.02
43480;BME280;29067;35.492;-97.520;2023-04-20T06:18:54;96270.11;;;17.26;85.00
43480;BME280;29067;35.492;-97.520;2023-04-20T06:21:22;96274.30;;;17.98;80.68
43480;BME280;29067;35.492;-97.520;2023-04-20T06:23:51;96275.64;;;16.88;85.00
43480;BME280;29067;35.492;-97.520;2023-04-20T06:26:19;96275.80;;;16.99;88.03
43480;BME280;29067;35.492;-97.520;2023-04-20T06:28:47;96277.69;;;16.87;87.57
43480;BME280;29067;35.492;-97.520;2023-04-20T06:31:14;96286.99;;;18.07;84.48
43480;BME280;29067;35.492;-97.520;2023-04-20T06:33:42;96297.38;;;17.62;85.44
43480;BME280;29067;35.492;-97.520;2023-04-20T06:36:10;96292.79;;;16.90;89.13
43480;BME280;29067;35.492;-97.520;2023-04-20T06:38:38;96296.60;;;18.14;84.36
43480;BME280;29067;35.492;-97.520;2023-04-20T06:41:05;96294.33;;;18.66;81.65
43480;BME280;29067;35.492;-97.520;2023-04-20T06:43:33;96305.01;;;16.79;84.53
43480;BME280;29067;35.492;-97.520;2023-04-20T06:46:01;96293.07;;;16.75;89.93
43480;BME280;29067;35.492;-97.520;2023-04-20T06:48:29;96306.86;;;16.59;89.97
43480;BME280;29067;35.492;-97.520;2023-04-20T06:50:57;96302.67;;;17.30;89.34
43480;BME280;29067;35.492;-97.520;2023-04-20T06:53:25;96298.89;;;17.05;86.05
43480;BME280;29067;35.492;-97.520;2023-04-20T06:55:53;96298.53;;;17.27;85.40
43480;BME280;29067;35.492;-97.520;2023-04-20T06:58:21;96313.70;;;17.20;88.08
43480;BME280;29067;35.492;-97.520;2023-04-20T07:00:49;96296.24;;;17.11;87.95
43480;BME280;29067;35.492;-97.520;2023-04-20T07:03:17;96310.55;;;17.26;88.30
43480;BME280;29067;35.492;-97.520;2023-04-20T07:05:45;96299.71;;;17.38;86.91
43480;BME280;29067;35.492;-97.520;2023-04-20T07:08:13;96292.01;;;17.12;87.52
43480;BME280;29067;35.492;-97.520;2023-04-20T07:10:41;96285.04;;;17.00;88.67
43480;BME280;29067;35.492;-97.520;2023-04-20T07:13:09;96268.49;;;16.74;91.90
43480;BME280;29067;35.492;-97.520;2023-04-20T07:15:37;96264.25;;;17.86;86.07
43480;BME280;29067;35.492;-97.520;2023-04-20T07:18:04;96259.82;;;17.05;89.08
43480;BME280;29067;35.492;-97.520;2023-04-20T07:20:32;96258.02;;;16.48;89.06
43480;BME280;29067;35.492;-97.520;2023-04-20T07:23:00;96259.41;;;16.82;90.03
43480;BME280;29067;35.492;-97.520;2023-04-20T07:25:28;96250.85;;;17.21;88.11
43480;BME280;29067;35.492;-97.520;2023-04-20T07:27:57;96263.10;;;16.71;90.33
43480;BME280;29067;35.492;-97.520;2023-04-20T07:30:25;96265.62;;;17.62;86.66
43480;BME280;29067;35.492;-97.520;2023-04-20T07:32:53;96265.98;;;16.72;86.87
43480;BME280;29067;35.492;-97.520;2023-04-20T07:35:21;96265.66;;;17.05;89.03
43480;BME280;29067;35.492;-97.520;2023-04-20T07:37:49;96255.28;;;16.44;91.97
43480;BME280;29067;35.492;-97.520;2023-04-20T07:40:18;96253.50;;;16.89;90.62
43480;BME280;29067;35.492;-97.520;2023-04-20T07:42:45;96255.11;;;16.79;90.64
43480;BME280;29067;35.492;-97.520;2023-04-20T07:45:13;96250.17;;;17.44;87.98
43480;BME280;29067;35.492;-97.520;2023-04-20T07:47:41;96249.04;;;16.47;91.51
43480;BME280;29067;35.492;-97.520;2023-04-20T07:50:09;96259.73;;;17.29;88.36
43480;BME280;29067;35.492;-97.520;2023-04-20T07:52:37;96251.71;;;16.64;91.03
43480;BME280;29067;35.492;-97.520;2023-04-20T07:55:06;96249.96;;;16.70;90.82
43480;BME280;29067;35.492;-97.520;2023-04-20T07:57:34;96244.78;;;16.94;90.04
43480;BME280;29067;35.492;-97.520;2023-04-20T08:00:02;96240.77;;;17.05;89.65
43480;BME280;29067;35.492;-97.520;2023-04-20T08:02:31;96232.46;;;16.11;93.44
43480;BME280;29067;35.492;-97.520;2023-04-20T08:05:01;96227.24;;;16.64;91.48
43480;BME280;29067;35.492;-97.520;2023-04-20T08:07:30;96223.91;;;16.32;95.71
43480;BME280;29067;35.492;-97.520;2023-04-20T08:09:58;96234.43;;;16.05;95.35
43480;BME280;29067;35.492;-97.520;2023-04-20T08:12:26;96231.12;;;16.94;93.06
43480;BME280;29067;35.492;-97.520;2023-04-20T08:14:55;96236.76;;;17.13;90.59
43480;BME280;29067;35.492;-97.520;2023-04-20T08:17:22;96239.28;;;16.92;89.27
43480;BME280;29067;35.492;-97.520;2023-04-20T08:19:50;96245.55;;;16.85;86.64
43480;BME280;29067;35.492;-97.520;2023-04-20T08:22:19;96253.71;;;17.08;89.84
43480;BME280;29067;35.492;-97.520;2023-04-20T08:24:47;96242.09;;;16.21;89.75
43480;BME280;29067;35.492;-97.520;2023-04-20T08:27:16;96242.98;;;17.48;87.05
43480;BME280;29067;35.492;-97.520;2023-04-20T08:29:44;96242.35;;;17.93;83.25
43480;BME280;29067;35.492;-97.520;2023-04-20T08:32:12;96262.47;;;17.59;85.84
43480;BME280;29067;35.492;-97.520;2023-04-20T08:34:39;96250.68;;;17.53;86.33
43480;BME280;29067;35.492;-97.520;2023-04-20T08:37:08;96254.13;;;16.39;88.40
43480;BME280;29067;35.492;-97.520;2023-04-20T08:39:36;96238.61;;;17.92;83.90
43480;BME280;29067;35.492;-97.520;2023-04-20T08:42:05;96248.52;;;16.85;88.74
43480;BME280;29067;35.492;-97.520;2023-04-20T08:44:33;96223.04;;;17.17;85.62
43480;BME280;29067;35.492;-97.520;2023-04-20T08:47:00;96233.98;;;16.73;86.28
43480;BME280;29067;35.492;-97.520;2023-04-20T08:49:30;96242.13;;;17.08;88.50
43480;BME280;29067;35.492;-97.520;2023-04-20T08:51:58;96250.27;;;16.89;86.49
43480;BME280;29067;35.492;-97.520;2023-04-20T08:54:26;96248.74;;;16.48;87.84
43480;BME280;29067;35.492;-97.520;2023-04-20T08:56:54;96258.16;;;17.11;85.89
43480;BME280;29067;35.492;-97.520;2023-04-20T08:59:22;96254.64;;;16.58;89.35
43480;BME280;29067;35.492;-97.520;2023-04-20T09:01:50;96249.59;;;17.53;83.82
43480;BME280;29067;35.492;-97.520;2023-04-20T09:04:20;96251.44;;;16.51;90.30
43480;BME280;29067;35.492;-97.520;2023-04-20T09:06:50;96253.44;;;16.66;91.12
43480;BME280;29067;35.492;-97.520;2023-04-20T09:09:19;96266.02;;;17.24;87.73
43480;BME280;29067;35.492;-97.520;2023-04-20T09:11:47;96268.82;;;16.94;88.51
43480;BME280;29067;35.492;-97.520;2023-04-20T09:14:15;96271.44;;;16.66;91.35
43480;BME280;29067;35.492;-97.520;2023-04-20T09:18:52;96286.48;;;17.20;85.97
43480;BME280;29067;35.492;-97.520;2023-04-20T09:21:22;96296.54;;;17.40;84.29
43480;BME280;29067;35.492;-97.520;2023-04-20T09:23:56;96307.18;;;17.98;82.31
43480;BME280;29067;35.492;-97.520;2023-04-20T09:26:25;96310.49;;;17.88;82.42
43480;BME280;29067;35.492;-97.520;2023-04-20T09:28:53;96311.67;;;17.61;85.22
43480;BME280;29067;35.492;-97.520;2023-04-20T09:31:22;96304.68;;;17.03;87.95
43480;BME280;29067;35.492;-97.520;2023-04-20T09:33:56;96311.41;;;17.16;90.14
43480;BME280;29067;35.492;-97.520;2023-04-20T09:36:33;96321.82;;;18.00;86.48
43480;BME280;29067;35.492;-97.520;2023-04-20T09:39:03;96321.18;;;18.23;79.71
43480;BME280;29067;35.492;-97.520;2023-04-20T09:41:32;96325.18;;;17.14;86.12
43480;BME280;29067;35.492;-97.520;2023-04-20T09:44:01;96322.18;;;18.30;81.06
43480;BME280;29067;35.492;-97.520;2023-04-20T09:46:30;96328.10;;;17.82;82.65
43480;BME280;29067;35.492;-97.520;2023-04-20T09:48:59;96326.57;;;18.18;80.82
43480;BME280;29067;35.492;-97.520;2023-04-20T09:51:29;96336.08;;;17.88;81.96
43480;BME280;29067;35.492;-97.520;2023-04-20T09:53:58;96340.07;;;18.43;78.33
43480;BME280;29067;35.492;-97.520;2023-04-20T09:56:28;96341.44;;;18.54;76.91
43480;BME280;29067;35.492;-97.520;2023-04-20T09:58:57;96348.61;;;18.22;77.87
43480;BME280;29067;35.492;-97.520;2023-04-20T10:01:25;96354.04;;;17.80;81.05
43480;BME280;29067;35.492;-97.520;2023-04-20T10:03:58;96355.32;;;18.56;78.65
43480;BME280;29067;35.492;-97.520;2023-04-20T10:06:28;96357.15;;;18.38;77.03
43480;BME280;29067;35.492;-97.520;2023-04-20T10:08:59;96376.55;;;17.62;81.44
43480;BME280;29067;35.492;-97.520;2023-04-20T10:11:29;96387.50;;;17.61;80.12
43480;BME280;29067;35.492;-97.520;2023-04-20T10:13:59;96395.07;;;17.72;81.52
43480;BME280;29067;35.492;-97.520;2023-04-20T10:16:27;96376.44;;;17.43;82.19
43480;BME280;29067;35.492;-97.520;2023-04-20T10:18:57;96369.97;;;17.68;80.85
43480;BME280;29067;35.492;-97.520;2023-04-20T10:21:25;96364.67;;;17.54;81.29
43480;BME280;29067;35.492;-97.520;2023-04-20T10:23:53;96363.14;;;17.85;80.56
43480;BME280;29067;35.492;-97.520;2023-04-20T10:26:22;96368.42;;;17.44;82.86
43480;BME280;29067;35.492;-97.520;2023-04-20T10:28:50;96371.98;;;16.96;86.85
43480;BME280;29067;35.492;-97.520;2023-04-20T10:31:19;96366.41;;;18.49;80.88
43480;BME280;29067;35.492;-97.520;2023-04-20T10:33:51;96374.43;;;17.90;82.43
43480;BME280;29067;35.492;-97.520;2023-04-20T10:36:26;96364.88;;;18.14;81.47
43480;BME280;29067;35.492;-97.520;2023-04-20T10:38:54;96356.30;;;17.94;81.87
43480;BME280;29067;35.492;-97.520;2023-04-20T10:41:22;96370.59;;;19.31;75.79
43480;BME280;29067;35.492;-97.520;2023-04-20T10:43:50;96362.77;;;18.21;79.10
43480;BME280;29067;35.492;-97.520;2023-04-20T10:46:21;96374.72;;;18.26;77.23
43480;BME280;29067;35.492;-97.520;2023-04-20T10:48:51;96374.86;;;18.54;80.21
43480;BME280;29067;35.492;-97.520;2023-04-20T10:51:20;96369.89;;;18.74;79.55
43480;BME280;29067;35.492;-97.520;2023-04-20T10:54:04;96374.73;;;18.53;77.26
43480;BME280;29067;35.492;-97.520;2023-04-20T10:56:40;96391.49;;;19.00;75.40
43480;BME280;29067;35.492;-97.520;2023-04-20T10:59:10;96408.42;;;17.55;82.96
43480;BME280;29067;35.492;-97.520;2023-04-20T11:03:00;96432.69;;;17.28;83.02
43480;BME280;29067;35.492;-97.520;2023-04-20T11:05:28;96443.51;;;17.60;82.19
43480;BME280;29067;35.492;-97.520;2023-04-20T11:07:57;96449.30;;;18.13;84.07
43480;BME280;29067;35.492;-97.520;2023-04-20T11:10:37;96526.59;;;17.62;93.33
43480;BME280;29067;35.492;-97.520;2023-04-20T11:13:18;96582.20;;;13.49;74.78
43480;BME280;29067;35.492;-97.520;2023-04-20T11:15:46;96612.14;;;10.96;63.21
43480;BME280;29067;35.492;-97.520;2023-04-20T11:18:14;96617.45;;;10.70;62.06
43480;BME280;29067;35.492;-97.520;2023-04-20T11:20:51;96630.61;;;10.06;59.48
43480;BME280;29067;35.492;-97.520;2023-04-20T11:23:20;96638.89;;;9.81;58.46
43480;BME280;29067;35.492;-97.520;2023-04-20T11:25:50;96653.59;;;10.35;59.11
43480;BME280;29067;35.492;-97.520;2023-04-20T11:28:18;96675.07;;;9.84;57.94
43480;BME280;29067;35.492;-97.520;2023-04-20T11:30:47;96692.90;;;10.11;54.10
43480;BME280;29067;35.492;-97.520;2023-04-20T11:33:24;96709.42;;;9.00;48.59
43480;BME280;29067;35.492;-97.520;2023-04-20T11:35:53;96715.42;;;8.70;51.54
43480;BME280;29067;35.492;-97.520;2023-04-20T11:38:27;96722.18;;;9.30;50.60
43480;BME280;29067;35.492;-97.520;2023-04-20T11:40:55;96732.70;;;8.55;48.87
43480;BME280;29067;35.492;-97.520;2023-04-20T11:43:23;96727.54;;;7.80;50.39
43480;BME280;29067;35.492;-97.520;2023-04-20T11:45:50;96729.16;;;9.50;48.84
43480;BME280;29067;35.492;-97.520;2023-04-20T11:48:19;96748.45;;;8.44;48.01
43480;BME280;29067;35.492;-97.520;2023-04-20T11:50:47;96762.58;;;7.65;47.41
43480;BME280;29067;35.492;-97.520;2023-04-20T11:53:16;96766.58;;;8.62;49.01
43480;BME280;29067;35.492;-97.520;2023-04-20T11:55:44;96771.35;;;7.84;45.40
43480;BME280;29067;35.492;-97.520;2023-04-20T11:58:12;96784.02;;;8.24;46.17
43480;BME280;29067;35.492;-97.520;2023-04-20T12:00:40;96793.82;;;7.89;48.23
43480;BME280;29067;35.492;-97.520;2023-04-20T12:03:07;96804.54;;;7.44;47.25
43480;BME280;29067;35.492;-97.520;2023-04-20T12:05:35;96804.32;;;8.94;45.03
43480;BME280;29067;35.492;-97.520;2023-04-20T12:08:03;96810.45;;;8.37;45.46
43480;BME280;29067;35.492;-97.520;2023-04-20T12:10:31;96843.87;;;7.01;47.02
43480;BME280;29067;35.492;-97.520;2023-04-20T12:12:59;96834.28;;;6.99;46.50
43480;BME280;29067;35.492;-97.520;2023-04-20T12:15:27;96856.29;;;6.90;46.12
43480;BME280;29067;35.492;-97.520;2023-04-20T12:17:55;96863.47;;;7.52;47.67
43480;BME280;29067;35.492;-97.520;2023-04-20T12:20:23;96872.36;;;6.67;47.26
43480;BME280;29067;35.492;-97.520;2023-04-20T12:22:51;96871.96;;;6.67;47.42
43480;BME280;29067;35.492;-97.520;2023-04-20T12:25:20;96869.55;;;6.58;47.57
43480;BME280;29067;35.492;-97.520;2023-04-20T12:27:47;96888.15;;;6.49;47.61
43480;BME280;29067;35.492;-97.520;2023-04-20T12:30:16;96889.24;;;7.12;47.64
43480;BME280;29067;35.492;-97.520;2023-04-20T12:32:44;96907.87;;;6.43;48.23
43480;BME280;29067;35.492;-97.520;2023-04-20T12:35:13;96921.31;;;7.00;47.63
43480;BME280;29067;35.492;-97.520;2023-04-20T12:37:40;96936.14;;;6.86;47.38
43480;BME280;29067;35.492;-97.520;2023-04-20T12:40:09;96932.16;;;6.31;48.29
43480;BME280;29067;35.492;-97.520;2023-04-20T12:42:37;96942.34;;;6.99;47.93
43480;BME280;29067;35.492;-97.520;2023-04-20T12:45:05;96959.23;;;7.43;47.61
43480;BME280;29067;35.492;-97.520;2023-04-20T12:47:33;96970.91;;;6.66;46.46
43480;BME280;29067;35.492;-97.520;2023-04-20T12:50:01;96967.01;;;8.22;46.08